createdAt,value
2022-09-01T00:00:30.683Z,-61
2022-09-01T00:02:59.110Z,-61
2022-09-01T00:05:28.594Z,-62
2022-09-01T00:07:56.692Z,-59
2022-09-01T00:10:24.964Z,-60
2022-09-01T00:12:53.344Z,-61
2022-09-01T00:15:21.425Z,-59
2022-09-01T00:17:49.741Z,-60
2022-09-01T00:20:20.513Z,-61
2022-09-01T00:22:50.759Z,-60
2022-09-01T00:25:20.684Z,-60
2022-09-01T00:27:49.737Z,-60
2022-09-01T00:30:18.324Z,-60
2022-09-01T00:32:46.891Z,-61
2022-09-01T00:35:16.253Z,-60
2022-09-01T00:37:44.818Z,-59
2022-09-01T00:40:17.370Z,-60
2022-09-01T00:42:46.172Z,-60
2022-09-01T00:45:14.456Z,-61
2022-09-01T00:47:43.742Z,-60
2022-09-01T00:50:15.940Z,-62
2022-09-01T00:52:51.853Z,-60
2022-09-01T00:55:26.904Z,-61
2022-09-01T00:57:55.123Z,-60
2022-09-01T01:00:27.601Z,-60
2022-09-01T01:02:56.851Z,-60
2022-09-01T01:05:33.064Z,-61
2022-09-01T01:08:04.287Z,-60
2022-09-01T01:10:38.956Z,-59
2022-09-01T01:13:15.551Z,-59
2022-09-01T01:15:44.874Z,-59
2022-09-01T01:18:13.805Z,-60
2022-09-01T01:21:00.945Z,-60
2022-09-01T01:23:39.012Z,-61
2022-09-01T01:26:11.431Z,-60
2022-09-01T01:28:44.152Z,-62
2022-09-01T01:31:16.365Z,-60
2022-09-01T01:33:47.734Z,-60
2022-09-01T01:36:21.548Z,-60
2022-09-01T01:38:51.024Z,-62
2022-09-01T01:41:22.002Z,-60
2022-09-01T01:43:51.025Z,-60
2022-09-01T01:46:20.718Z,-61
2022-09-01T01:48:52.428Z,-61
2022-09-01T01:51:24.987Z,-60
2022-09-01T01:53:53.596Z,-62
2022-09-01T01:56:25.661Z,-61
2022-09-01T01:58:54.689Z,-59
2022-09-01T02:01:24.387Z,-61
2022-09-01T02:03:54.781Z,-60
2022-09-01T02:06:25.590Z,-61
2022-09-01T02:08:56.627Z,-61
2022-09-01T02:11:26.635Z,-61
2022-09-01T02:13:56.316Z,-60
2022-09-01T02:16:26.112Z,-60
2022-09-01T02:18:54.460Z,-61
2022-09-01T02:21:27.121Z,-60
2022-09-01T02:24:00.345Z,-60
2022-09-01T02:26:33.320Z,-61
2022-09-01T02:29:05.137Z,-60
2022-09-01T02:31:35.494Z,-60
2022-09-01T02:34:04.574Z,-60
2022-09-01T02:36:35.101Z,-60
2022-09-01T02:39:03.206Z,-62
2022-09-01T02:41:34.614Z,-61
2022-09-01T02:44:04.124Z,-60
2022-09-01T02:46:32.299Z,-61
2022-09-01T02:49:01.575Z,-61
2022-09-01T02:51:31.758Z,-60
2022-09-01T02:54:00.595Z,-60
2022-09-01T02:56:28.849Z,-61
2022-09-01T02:59:01.715Z,-61
2022-09-01T03:01:34.021Z,-60
2022-09-01T03:04:05.635Z,-59
2022-09-01T03:06:36.440Z,-61
2022-09-01T03:09:08.585Z,-60
2022-09-01T03:11:42.961Z,-61
2022-09-01T03:14:13.201Z,-60
2022-09-01T03:16:42.293Z,-60
2022-09-01T03:19:12.097Z,-61
2022-09-01T03:21:43.317Z,-60
2022-09-01T03:24:15.154Z,-60
2022-09-01T03:26:45.493Z,-61
2022-09-01T03:29:20.078Z,-60
2022-09-01T03:31:48.530Z,-60
2022-09-01T03:34:20.721Z,-61
2022-09-01T03:36:51.095Z,-61
2022-09-01T03:39:20.047Z,-60
2022-09-01T03:41:48.419Z,-60
2022-09-01T03:44:18.056Z,-60
2022-09-01T03:46:46.697Z,-60
2022-09-01T03:49:15.511Z,-61
2022-09-01T03:51:45.011Z,-60
2022-09-01T03:54:14.296Z,-59
2022-09-01T03:56:43.799Z,-59
2022-09-01T03:59:16.761Z,-60
2022-09-01T04:01:47.577Z,-60
2022-09-01T04:04:16.617Z,-61
2022-09-01T04:06:46.760Z,-61
2022-09-01T04:09:15.429Z,-60
2022-09-01T04:11:46.257Z,-62
2022-09-01T04:14:15.275Z,-60
2022-09-01T04:17:03.904Z,-60
2022-09-01T04:19:38.444Z,-59
2022-09-01T04:22:13.430Z,-61
2022-09-01T04:24:45.960Z,-60
2022-09-01T04:27:18.038Z,-60
2022-09-01T04:29:46.775Z,-61
2022-09-01T04:32:16.961Z,-59
2022-09-01T04:34:45.047Z,-59
2022-09-01T04:37:18.182Z,-60
2022-09-01T04:39:55.747Z,-59
2022-09-01T04:42:29.063Z,-60
2022-09-01T04:44:59.908Z,-61
2022-09-01T04:47:36.298Z,-60
2022-09-01T04:50:14.175Z,-60
2022-09-01T04:52:45.771Z,-62
2022-09-01T04:55:18.403Z,-60
2022-09-01T04:57:49.528Z,-59
2022-09-01T05:00:24.374Z,-61
2022-09-01T05:03:03.387Z,-59
2022-09-01T05:05:42.462Z,-60
2022-09-01T05:08:14.494Z,-59
2022-09-01T05:10:56.556Z,-60
2022-09-01T05:13:27.316Z,-60
2022-09-01T05:16:04.082Z,-59
2022-09-01T05:18:34.141Z,-59
2022-09-01T05:21:11.125Z,-58
2022-09-01T05:23:40.641Z,-60
2022-09-01T05:26:16.913Z,-60
2022-09-01T05:28:45.668Z,-60
2022-09-01T05:31:14.005Z,-59
2022-09-01T05:33:46.016Z,-60
2022-09-01T05:36:17.880Z,-60
2022-09-01T05:38:48.046Z,-60
2022-09-01T05:41:20.921Z,-60
2022-09-01T05:43:57.782Z,-59
2022-09-01T05:46:30.016Z,-60
2022-09-01T05:48:59.735Z,-60
2022-09-01T05:51:44.372Z,-60
2022-09-01T05:54:15.172Z,-60
2022-09-01T05:56:44.888Z,-60
2022-09-01T05:59:23.071Z,-60
2022-09-01T06:01:53.186Z,-59
2022-09-01T06:04:25.379Z,-59
2022-09-01T06:07:05.776Z,-60
2022-09-01T06:09:39.394Z,-60
2022-09-01T06:12:09.133Z,-61
2022-09-01T06:14:37.398Z,-60
2022-09-01T06:17:06.662Z,-60
2022-09-01T06:19:37.383Z,-60
2022-09-01T06:22:07.988Z,-59
2022-09-01T06:24:36.824Z,-60
2022-09-01T06:27:09.746Z,-60
2022-09-01T06:29:39.712Z,-62
2022-09-01T06:32:10.466Z,-60
2022-09-01T06:34:44.535Z,-59
2022-09-01T06:37:13.248Z,-59
2022-09-01T06:39:41.570Z,-60
2022-09-01T06:42:13.748Z,-60
2022-09-01T06:44:41.867Z,-60
2022-09-01T06:47:10.894Z,-61
2022-09-01T06:49:41.087Z,-59
2022-09-01T06:52:09.565Z,-60
2022-09-01T06:54:39.568Z,-60
2022-09-01T06:59:56.176Z,-60
2022-09-01T07:02:27.189Z,-59
2022-09-01T07:04:57.219Z,-59
2022-09-01T07:10:21.212Z,-60
2022-09-01T07:13:06.623Z,-60
2022-09-01T07:18:27.686Z,-59
2022-09-01T07:24:07.835Z,-60
2022-09-01T07:26:36.167Z,-59
2022-09-01T07:29:07.371Z,-60
2022-09-01T07:34:46.272Z,-60
2022-09-01T07:38:47.344Z,-59
2022-09-01T07:45:31.388Z,-61
2022-09-01T07:48:06.523Z,-60
2022-09-01T07:51:34.597Z,-59
2022-09-01T07:53:31.431Z,-60
2022-09-01T07:56:02.437Z,-59
2022-09-01T07:58:31.424Z,-59
2022-09-01T08:01:02.634Z,-60
2022-09-01T08:03:32.014Z,-60
2022-09-01T08:06:06.976Z,-60
2022-09-01T08:08:40.559Z,-59
2022-09-01T08:11:09.394Z,-60
2022-09-01T08:13:41.910Z,-61
2022-09-01T08:16:19.285Z,-60
2022-09-01T08:18:49.981Z,-60
2022-09-01T08:21:22.132Z,-60
2022-09-01T08:23:53.733Z,-60
2022-09-01T08:26:25.076Z,-60
2022-09-01T08:28:55.488Z,-60
2022-09-01T08:31:30.526Z,-60
2022-09-01T08:34:00.014Z,-60
2022-09-01T08:36:28.106Z,-60
2022-09-01T08:38:57.567Z,-60
2022-09-01T08:41:46.415Z,-60
2022-09-01T08:44:32.592Z,-61
2022-09-01T08:47:07.031Z,-59
2022-09-01T08:49:43.306Z,-60
2022-09-01T08:52:25.510Z,-60
2022-09-01T08:55:02.626Z,-60
2022-09-01T08:57:36.151Z,-59
2022-09-01T09:00:08.312Z,-61
2022-09-01T09:02:52.282Z,-62
2022-09-01T09:05:34.034Z,-61
2022-09-01T09:08:56.729Z,-61
2022-09-01T09:12:00.018Z,-61
2022-09-01T09:14:51.796Z,-60
2022-09-01T09:17:28.274Z,-62
2022-09-01T09:19:56.420Z,-61
2022-09-01T09:22:24.528Z,-61
2022-09-01T09:25:00.259Z,-61
2022-09-01T09:27:33.918Z,-62
2022-09-01T09:30:09.324Z,-62
2022-09-01T09:33:24.969Z,-62
2022-09-01T09:35:42.981Z,-62
2022-09-01T09:38:28.830Z,-62
2022-09-01T09:41:17.145Z,-62
2022-09-01T09:44:00.106Z,-60
2022-09-01T09:46:37.652Z,-61
2022-09-01T09:49:34.242Z,-62
2022-09-01T09:52:18.329Z,-60
2022-09-01T09:55:06.852Z,-62
2022-09-01T09:57:42.192Z,-62
2022-09-01T10:00:24.519Z,-62
2022-09-01T10:03:07.888Z,-62
2022-09-01T10:05:43.201Z,-61
2022-09-01T10:08:16.514Z,-63
2022-09-01T10:10:58.193Z,-61
2022-09-01T10:13:31.301Z,-61
2022-09-01T10:16:09.065Z,-62
2022-09-01T10:18:44.839Z,-61
2022-09-01T10:21:18.452Z,-61
2022-09-01T10:23:46.593Z,-62
2022-09-01T10:26:21.519Z,-62
2022-09-01T10:28:59.946Z,-62
2022-09-01T10:31:32.406Z,-62
2022-09-01T10:34:05.900Z,-61
2022-09-01T10:36:37.829Z,-61
2022-09-01T10:39:12.294Z,-62
2022-09-01T10:42:00.574Z,-62
2022-09-01T10:44:33.981Z,-62
2022-09-01T10:47:14.497Z,-62
2022-09-01T10:50:07.461Z,-62
2022-09-01T10:53:04.703Z,-62
2022-09-01T10:55:48.306Z,-61
2022-09-01T11:02:24.975Z,-62
2022-09-01T11:05:17.996Z,-63
2022-09-01T11:08:15.832Z,-62
2022-09-01T11:11:00.290Z,-63
2022-09-01T11:13:49.564Z,-62
2022-09-01T11:16:53.018Z,-62
2022-09-01T11:19:44.458Z,-63
2022-09-01T11:22:45.139Z,-64
2022-09-01T11:25:43.798Z,-62
2022-09-01T11:28:41.829Z,-63
2022-09-01T11:31:30.882Z,-62
2022-09-01T11:34:23.344Z,-61
2022-09-01T11:37:01.308Z,-62
2022-09-01T11:39:42.256Z,-61
2022-09-01T11:42:22.524Z,-62
2022-09-01T11:44:58.704Z,-62
2022-09-01T11:47:33.205Z,-61
2022-09-01T11:50:05.924Z,-61
2022-09-01T11:52:41.388Z,-62
2022-09-01T11:55:11.757Z,-61
2022-09-01T11:57:42.051Z,-60
2022-09-01T12:00:15.089Z,-61
2022-09-01T12:02:49.085Z,-61
2022-09-01T12:05:32.043Z,-61
2022-09-01T12:08:04.823Z,-62
2022-09-01T12:10:38.332Z,-61
2022-09-01T12:13:10.052Z,-61
2022-09-01T12:16:00.626Z,-62
2022-09-01T12:18:35.133Z,-61
2022-09-01T12:21:07.878Z,-62
2022-09-01T12:23:43.009Z,-62
2022-09-01T12:26:15.406Z,-60
2022-09-01T12:28:44.468Z,-61
2022-09-01T12:31:17.989Z,-61
2022-09-01T12:33:47.725Z,-61
2022-09-01T12:36:26.467Z,-62
2022-09-01T12:38:58.267Z,-61
2022-09-01T12:41:35.447Z,-61
2022-09-01T12:44:30.499Z,-61
2022-09-01T12:47:02.724Z,-61
2022-09-01T12:49:47.959Z,-61
2022-09-01T12:52:28.550Z,-62
2022-09-01T12:58:07.974Z,-61
2022-09-01T13:00:39.521Z,-62
2022-09-01T13:03:14.488Z,-61
2022-09-01T13:05:44.376Z,-62
2022-09-01T13:08:18.306Z,-61
2022-09-01T13:10:52.997Z,-62
2022-09-01T13:13:24.052Z,-62
2022-09-01T13:15:56.742Z,-61
2022-09-01T13:18:27.548Z,-61
2022-09-01T13:20:57.065Z,-61
2022-09-01T13:23:25.856Z,-61
2022-09-01T13:25:55.211Z,-61
2022-09-01T13:36:47.243Z,-61
2022-09-01T13:39:17.159Z,-61
2022-09-01T13:41:48.290Z,-63
2022-09-01T13:44:17.373Z,-62
2022-09-01T13:47:28.560Z,-62
2022-09-01T13:49:44.045Z,-61
2022-09-01T13:52:22.590Z,-62
2022-09-01T13:54:50.763Z,-63
2022-09-01T13:57:20.114Z,-62
2022-09-01T13:59:48.150Z,-61
2022-09-01T14:02:16.249Z,-62
2022-09-01T14:04:44.670Z,-62
2022-09-01T14:07:12.860Z,-61
2022-09-01T14:09:40.884Z,-60
2022-09-01T14:12:09.143Z,-61
2022-09-01T14:17:26.538Z,-64
2022-09-01T14:19:55.319Z,-65
2022-09-01T14:22:23.412Z,-61
2022-09-01T14:24:52.219Z,-62
2022-09-01T14:27:20.363Z,-61
2022-09-01T14:29:54.901Z,-61
2022-09-01T14:32:27.086Z,-62
2022-09-01T14:34:55.410Z,-62
2022-09-01T14:37:24.468Z,-63
2022-09-01T14:39:53.596Z,-61
2022-09-01T14:42:23.938Z,-61
2022-09-01T14:44:53.725Z,-63
2022-09-01T14:47:24.711Z,-61
2022-09-01T14:49:53.325Z,-61
2022-09-01T14:52:22.285Z,-62
2022-09-01T14:54:50.899Z,-62
2022-09-01T14:57:36.919Z,-61
2022-09-01T15:00:13.013Z,-60
2022-09-01T15:02:43.994Z,-64
2022-09-01T15:05:13.795Z,-61
2022-09-01T15:07:43.262Z,-62
2022-09-01T15:10:24.975Z,-64
2022-09-01T15:12:55.768Z,-60
2022-09-01T15:15:27.180Z,-61
2022-09-01T15:17:56.110Z,-62
2022-09-01T15:20:42.962Z,-61
2022-09-01T15:23:11.554Z,-61
2022-09-01T15:25:40.067Z,-61
2022-09-01T15:28:08.879Z,-62
2022-09-01T15:30:40.581Z,-63
2022-09-01T15:33:14.703Z,-62
2022-09-01T15:35:44.347Z,-62
2022-09-01T15:38:17.165Z,-62
2022-09-01T15:40:57.696Z,-63
2022-09-01T15:43:28.331Z,-61
2022-09-01T15:45:59.106Z,-62
2022-09-01T15:48:29.365Z,-62
2022-09-01T15:51:29.371Z,-62
2022-09-01T15:54:02.069Z,-62
2022-09-01T15:56:31.202Z,-62
2022-09-01T15:59:02.027Z,-62
2022-09-01T16:01:36.177Z,-62
2022-09-01T16:04:07.882Z,-62
2022-09-01T16:06:36.803Z,-61
2022-09-01T16:09:06.833Z,-63
2022-09-01T16:11:36.669Z,-61
2022-09-01T16:14:06.207Z,-61
2022-09-01T16:16:54.442Z,-61
2022-09-01T16:19:34.424Z,-60
2022-09-01T16:22:14.179Z,-62
2022-09-01T16:24:45.687Z,-61
2022-09-01T16:27:18.350Z,-61
2022-09-01T16:29:51.685Z,-61
2022-09-01T16:32:23.543Z,-62
2022-09-01T16:34:53.347Z,-61
2022-09-01T16:37:47.146Z,-62
2022-09-01T16:40:34.762Z,-61
2022-09-01T16:43:13.365Z,-61
2022-09-01T16:45:53.953Z,-62
2022-09-01T16:48:34.227Z,-62
2022-09-01T16:51:15.056Z,-62
2022-09-01T16:54:02.666Z,-61
2022-09-01T16:56:37.318Z,-61
2022-09-01T16:59:25.165Z,-62
2022-09-01T17:02:07.118Z,-62
2022-09-01T17:04:46.770Z,-61
2022-09-01T17:07:21.113Z,-61
2022-09-01T17:10:04.813Z,-61
2022-09-01T17:12:42.883Z,-62
2022-09-01T17:15:16.055Z,-60
2022-09-01T17:17:55.839Z,-61
2022-09-01T17:20:30.702Z,-61
2022-09-01T17:23:08.622Z,-60
2022-09-01T17:25:45.012Z,-61
2022-09-01T17:28:20.814Z,-62
2022-09-01T17:31:00.347Z,-62
2022-09-01T17:33:44.831Z,-62
2022-09-01T17:36:27.095Z,-66
2022-09-01T17:39:03.700Z,-67
2022-09-01T17:41:41.616Z,-66
2022-09-01T17:44:21.457Z,-68
2022-09-01T17:47:01.778Z,-63
2022-09-01T17:49:39.676Z,-62
2022-09-01T17:52:19.018Z,-62
2022-09-01T17:54:59.964Z,-62
2022-09-01T17:57:35.965Z,-62
2022-09-01T18:00:09.245Z,-64
2022-09-01T18:03:14.813Z,-61
2022-09-01T18:05:46.516Z,-60
2022-09-01T18:08:38.237Z,-60
2022-09-01T18:11:14.170Z,-61
2022-09-01T18:13:54.283Z,-60
2022-09-01T18:16:29.494Z,-60
2022-09-01T18:19:04.637Z,-59
2022-09-01T18:21:38.181Z,-60
2022-09-01T18:24:21.496Z,-62
2022-09-01T18:26:52.917Z,-61
2022-09-01T18:29:25.015Z,-63
2022-09-01T18:32:13.083Z,-61
2022-09-01T18:35:13.331Z,-62
2022-09-01T18:38:01.547Z,-62
2022-09-01T18:40:43.792Z,-62
2022-09-01T18:43:23.690Z,-61
2022-09-01T18:46:00.023Z,-62
2022-09-01T18:48:50.685Z,-63
2022-09-01T18:51:31.462Z,-64
2022-09-01T18:54:10.369Z,-65
2022-09-01T18:56:49.521Z,-64
2022-09-01T19:00:18.930Z,-65
2022-09-01T19:03:21.359Z,-62
2022-09-01T19:06:12.624Z,-61
2022-09-01T19:09:01.555Z,-61
2022-09-01T19:11:49.394Z,-62
2022-09-01T19:14:30.890Z,-63
2022-09-01T19:17:22.280Z,-63
2022-09-01T19:19:57.920Z,-61
2022-09-01T19:22:40.345Z,-61
2022-09-01T19:25:30.092Z,-61
2022-09-01T19:28:08.163Z,-61
2022-09-01T19:30:42.539Z,-61
2022-09-01T19:33:17.427Z,-66
2022-09-01T19:35:49.330Z,-66
2022-09-01T19:38:27.562Z,-67
2022-09-01T19:41:05.299Z,-63
2022-09-01T19:43:40.279Z,-62
2022-09-01T19:46:22.371Z,-62
2022-09-01T19:49:00.183Z,-63
2022-09-01T19:51:34.730Z,-62
2022-09-01T19:54:10.797Z,-62
2022-09-01T19:56:49.783Z,-63
2022-09-01T19:59:28.152Z,-69
2022-09-01T20:02:00.679Z,-67
2022-09-01T20:04:42.888Z,-68
2022-09-01T20:07:25.096Z,-69
2022-09-01T20:10:13.603Z,-69
2022-09-01T20:12:52.837Z,-63
2022-09-01T20:15:33.495Z,-65
2022-09-01T20:18:08.952Z,-64
2022-09-01T20:20:46.970Z,-64
2022-09-01T20:23:27.877Z,-64
2022-09-01T20:26:04.472Z,-64
2022-09-01T20:28:45.630Z,-64
2022-09-01T20:31:28.219Z,-64
2022-09-01T20:34:05.395Z,-61
2022-09-01T20:36:42.865Z,-61
2022-09-01T20:39:51.700Z,-63
2022-09-01T20:42:32.176Z,-61
2022-09-01T20:45:06.502Z,-62
2022-09-01T20:47:36.004Z,-64
2022-09-01T20:50:12.835Z,-62
2022-09-01T20:52:59.741Z,-62
2022-09-01T20:55:38.554Z,-62
2022-09-01T20:58:16.738Z,-63
2022-09-01T21:01:03.195Z,-61
2022-09-01T21:03:47.239Z,-63
2022-09-01T21:06:28.925Z,-63
2022-09-01T21:09:10.279Z,-63
2022-09-01T21:11:47.602Z,-62
2022-09-01T21:14:43.795Z,-64
2022-09-01T21:17:24.441Z,-61
2022-09-01T21:20:09.393Z,-63
2022-09-01T21:22:37.530Z,-65
2022-09-01T21:25:06.858Z,-64
2022-09-01T21:27:44.555Z,-62
2022-09-01T21:30:15.997Z,-63
2022-09-01T21:32:44.851Z,-63
2022-09-01T21:35:18.246Z,-62
2022-09-01T21:37:46.466Z,-62
2022-09-01T21:40:16.462Z,-63
2022-09-01T21:42:52.455Z,-62
2022-09-01T21:45:22.307Z,-61
2022-09-01T21:47:52.512Z,-60
2022-09-01T21:50:25.176Z,-60
2022-09-01T21:52:53.709Z,-61
2022-09-01T21:55:24.904Z,-60
2022-09-01T21:57:53.307Z,-61
2022-09-01T22:00:25.379Z,-61
2022-09-01T22:02:54.235Z,-61
2022-09-01T22:05:26.022Z,-62
2022-09-01T22:07:56.043Z,-62
2022-09-01T22:10:29.938Z,-61
2022-09-01T22:13:03.510Z,-62
2022-09-01T22:15:32.642Z,-62
2022-09-01T22:18:00.882Z,-61
2022-09-01T22:20:31.973Z,-63
2022-09-01T22:23:02.021Z,-62
2022-09-01T22:25:32.694Z,-61
2022-09-01T22:28:03.230Z,-62
2022-09-01T22:30:31.905Z,-61
2022-09-01T22:33:01.182Z,-61
2022-09-01T22:35:30.844Z,-61
2022-09-01T22:37:58.922Z,-61
2022-09-01T22:40:27.084Z,-61
2022-09-01T22:42:55.268Z,-62
2022-09-01T22:45:23.457Z,-61
2022-09-01T22:47:51.552Z,-62
2022-09-01T22:50:19.849Z,-61
2022-09-01T22:52:49.294Z,-63
2022-09-01T22:55:17.881Z,-61
2022-09-01T22:57:45.987Z,-61
2022-09-01T23:00:15.416Z,-63
2022-09-01T23:02:44.815Z,-61
2022-09-01T23:05:13.165Z,-62
2022-09-01T23:07:41.327Z,-62
2022-09-01T23:10:12.001Z,-60
2022-09-01T23:12:40.070Z,-63
2022-09-01T23:15:10.448Z,-63
2022-09-01T23:17:39.678Z,-61
2022-09-01T23:20:13.020Z,-62
2022-09-01T23:22:42.652Z,-61
2022-09-01T23:25:16.319Z,-62
2022-09-01T23:27:44.787Z,-62
2022-09-01T23:30:16.150Z,-63
2022-09-01T23:32:44.817Z,-65
2022-09-01T23:35:13.985Z,-66
2022-09-01T23:37:44.730Z,-63
2022-09-01T23:40:14.528Z,-62
2022-09-01T23:42:42.817Z,-62
2022-09-01T23:45:12.585Z,-62
2022-09-01T23:47:41.025Z,-62
2022-09-01T23:50:10.625Z,-62
2022-09-01T23:52:39.426Z,-63
2022-09-01T23:55:09.443Z,-63
2022-09-01T23:57:39.462Z,-63
